createdAt,value
2018-05-09T00:00:18.529Z,11.96
2018-05-09T00:06:13.503Z,14.18
2018-05-09T00:12:08.564Z,11.58
2018-05-09T00:18:03.521Z,14.07
2018-05-09T00:23:58.508Z,11.35
2018-05-09T00:29:53.552Z,11.85
2018-05-09T00:35:48.577Z,11.02
2018-05-09T00:41:43.615Z,9.39
2018-05-09T00:47:38.563Z,9.72
2018-05-09T00:53:33.595Z,8.49
2018-05-09T00:59:28.555Z,8.44
2018-05-09T01:05:23.540Z,8.25
2018-05-09T01:11:18.554Z,8.12
2018-05-09T01:17:13.531Z,7.35
2018-05-09T01:23:08.573Z,8.94
2018-05-09T01:29:03.563Z,8.68
2018-05-09T01:34:58.583Z,9.19
2018-05-09T01:40:53.610Z,11.06
2018-05-09T01:46:48.640Z,10.81
2018-05-09T01:52:43.589Z,13.09
2018-05-09T01:58:38.555Z,11.16
2018-05-09T02:04:33.572Z,12.09
2018-05-09T02:10:28.576Z,11.2
2018-05-09T02:16:23.611Z,10.6
2018-05-09T02:22:18.596Z,11.27
2018-05-09T02:28:13.659Z,11.2
2018-05-09T02:34:08.642Z,10.92
2018-05-09T02:40:03.695Z,9.98
2018-05-09T02:45:58.628Z,9.83
2018-05-09T02:51:53.627Z,8.57
2018-05-09T02:57:48.661Z,8.75
2018-05-09T03:03:43.611Z,9.59
2018-05-09T03:09:38.607Z,11.15
2018-05-09T03:15:33.647Z,9.8
2018-05-09T03:21:28.639Z,9.65
2018-05-09T03:27:23.688Z,10.48
2018-05-09T03:33:18.670Z,9.32
2018-05-09T03:39:13.701Z,11.49
2018-05-09T03:45:08.641Z,11.76
2018-05-09T03:51:03.677Z,12.14
2018-05-09T03:56:58.711Z,11.96
2018-05-09T04:02:53.716Z,11.18
2018-05-09T04:08:48.702Z,10.38
2018-05-09T04:14:43.715Z,10.36
2018-05-09T04:20:38.677Z,11.17
2018-05-09T04:26:33.699Z,11.76
2018-05-09T04:32:28.792Z,9.77
2018-05-09T04:38:23.743Z,10.26
2018-05-09T04:44:18.690Z,10.26
2018-05-09T04:50:13.691Z,11.07
2018-05-09T04:56:08.749Z,11.53
2018-05-09T05:02:03.679Z,11.03
2018-05-09T05:07:58.704Z,11.31
2018-05-09T05:13:53.814Z,12.45
2018-05-09T05:19:48.739Z,12.27
2018-05-09T05:25:43.735Z,13.44
2018-05-09T05:31:38.739Z,15.68
2018-05-09T05:37:33.724Z,14.77
2018-05-09T05:43:28.727Z,27.39
2018-05-09T05:49:23.724Z,18.2
2018-05-09T05:55:18.730Z,17.71
2018-05-09T06:01:13.795Z,16.46
2018-05-09T06:07:08.740Z,15.72
2018-05-09T06:13:03.756Z,14.89
2018-05-09T06:18:58.763Z,14.85
2018-05-09T06:24:53.813Z,14.58
2018-05-09T06:30:48.796Z,13.26
2018-05-09T06:36:43.777Z,19.45
2018-05-09T06:42:38.729Z,15.02
2018-05-09T06:48:33.789Z,15.74
2018-05-09T06:54:28.804Z,20.39
2018-05-09T07:00:23.798Z,14.58
2018-05-09T07:06:18.924Z,18.38
2018-05-09T07:12:13.749Z,15.93
2018-05-09T07:18:08.788Z,15.1
2018-05-09T07:24:03.789Z,16.61
2018-05-09T07:29:58.823Z,19.19
2018-05-09T07:35:53.824Z,20.34
2018-05-09T07:41:48.825Z,20.29
2018-05-09T07:47:43.860Z,21.22
2018-05-09T07:53:38.802Z,23.15
2018-05-09T07:59:33.793Z,25.24
2018-05-09T08:05:28.828Z,22.36
2018-05-09T08:11:23.916Z,22.06
2018-05-09T08:17:18.836Z,22.58
2018-05-09T08:23:13.839Z,23.57
2018-05-09T08:29:08.864Z,24.18
2018-05-09T08:35:03.885Z,23.99
2018-05-09T08:40:58.853Z,22.3
2018-05-09T08:46:53.877Z,23.45
2018-05-09T08:52:48.826Z,22.66
2018-05-09T08:58:43.876Z,22.8
2018-05-09T09:04:38.854Z,21.98
2018-05-09T09:10:33.842Z,21.37
2018-05-09T09:16:28.894Z,23.16
2018-05-09T09:22:23.882Z,22
2018-05-09T09:28:18.881Z,22.84
2018-05-09T09:34:13.904Z,24.01
2018-05-09T09:40:08.870Z,24.35
2018-05-09T09:46:03.874Z,23.84
2018-05-09T09:51:58.912Z,21.76
2018-05-09T09:57:53.891Z,22.39
2018-05-09T10:03:48.906Z,30.17
2018-05-09T10:09:43.919Z,22.94
2018-05-09T10:15:38.975Z,22.97
2018-05-09T10:21:33.942Z,23.21
2018-05-09T10:27:28.949Z,21.54
2018-05-09T10:33:23.930Z,23.08
2018-05-09T10:39:18.897Z,20.98
2018-05-09T10:45:13.946Z,19.65
2018-05-09T10:51:08.931Z,20.92
2018-05-09T10:57:04.019Z,17.74
2018-05-09T11:02:58.986Z,15.31
2018-05-09T11:08:54.102Z,12.46
2018-05-09T11:14:48.931Z,13.2
2018-05-09T11:20:43.967Z,13.58
2018-05-09T11:26:38.975Z,14.42
2018-05-09T11:32:33.980Z,14.04
2018-05-09T11:38:28.959Z,14.27
2018-05-09T11:44:23.963Z,12.89
2018-05-09T11:50:18.946Z,13.72
2018-05-09T11:56:13.994Z,15.49
2018-05-09T12:02:09.075Z,16.8
2018-05-09T12:08:03.998Z,17.79
2018-05-09T12:13:58.995Z,18.73
2018-05-09T12:19:54.021Z,17.91
2018-05-09T12:25:49.038Z,14.22
2018-05-09T12:31:44.018Z,14.02
2018-05-09T12:37:39.040Z,13.15
2018-05-09T12:43:34.060Z,12.08
2018-05-09T12:49:29.008Z,13.96
2018-05-09T12:55:24.064Z,13.84
2018-05-09T13:01:18.998Z,14.91
2018-05-09T13:07:14.049Z,14.39
2018-05-09T13:13:09.098Z,14.71
2018-05-09T13:19:04.049Z,15.68
2018-05-09T13:24:59.060Z,16.22
2018-05-09T13:30:54.066Z,13.78
2018-05-09T13:36:49.122Z,11.15
2018-05-09T13:42:44.061Z,12.47
2018-05-09T13:48:39.161Z,10.8
2018-05-09T13:54:34.092Z,9.71
2018-05-09T14:00:29.092Z,8.05
2018-05-09T14:06:24.109Z,6.94
2018-05-09T14:12:19.172Z,8.47
2018-05-09T14:18:14.117Z,6.63
2018-05-09T14:24:09.100Z,5.23
2018-05-09T14:30:04.149Z,5.21
2018-05-09T14:35:59.130Z,4.84
2018-05-09T14:41:54.098Z,5.21
2018-05-09T14:47:49.164Z,5.77
2018-05-09T14:53:44.131Z,3.59
2018-05-09T14:59:39.127Z,3.08
2018-05-09T15:05:34.098Z,3.87
2018-05-09T15:11:29.127Z,3.97
2018-05-09T15:17:24.163Z,3.63
2018-05-09T15:23:19.167Z,3.6
2018-05-09T15:29:14.120Z,3.53
2018-05-09T15:35:09.154Z,3.52
2018-05-09T15:41:04.173Z,3.76
2018-05-09T15:46:59.137Z,3.24
2018-05-09T15:52:54.128Z,3.3
2018-05-09T15:58:49.164Z,2.95
2018-05-09T16:04:44.185Z,3.2
2018-05-09T16:10:39.200Z,3.21
2018-05-09T16:16:34.162Z,3
2018-05-09T16:22:29.338Z,3.05
2018-05-09T16:28:24.188Z,3.12
2018-05-09T16:34:19.197Z,3.68
2018-05-09T16:40:14.181Z,3.32
2018-05-09T16:46:09.214Z,3.86
2018-05-09T16:52:04.166Z,3.95
2018-05-09T16:57:59.238Z,4.07
2018-05-09T17:03:54.239Z,3.79
2018-05-09T17:09:49.213Z,3.71
2018-05-09T17:15:44.254Z,4.01
2018-05-09T17:21:39.223Z,4.61
2018-05-09T17:27:34.243Z,4.38
2018-05-09T17:33:29.253Z,5.61
2018-05-09T17:39:24.240Z,4.7
2018-05-09T17:45:19.284Z,4.99
2018-05-09T17:51:14.269Z,4.75
2018-05-09T17:57:09.267Z,5.05
2018-05-09T18:03:04.320Z,4.93
2018-05-09T18:08:59.279Z,5.21
2018-05-09T18:14:54.228Z,4.92
2018-05-09T18:20:49.314Z,5.6
2018-05-09T18:26:44.351Z,5.57
2018-05-09T18:32:39.271Z,5.36
2018-05-09T18:38:34.300Z,5.86
2018-05-09T18:44:29.308Z,5.95
2018-05-09T18:50:24.295Z,5.85
2018-05-09T18:56:19.318Z,5.77
2018-05-09T19:02:14.285Z,5.41
2018-05-09T19:08:09.302Z,6.59
2018-05-09T19:14:04.299Z,6.4
2018-05-09T19:19:59.365Z,7.57
2018-05-09T19:25:54.371Z,7.55
2018-05-09T19:31:49.298Z,7.51
2018-05-09T19:37:44.289Z,7.16
2018-05-09T19:43:39.343Z,7.53
2018-05-09T19:49:34.317Z,7.83
2018-05-09T19:55:29.373Z,7.68
2018-05-09T20:01:24.300Z,7.57
2018-05-09T20:07:19.338Z,6.68
2018-05-09T20:13:14.327Z,7.09
2018-05-09T20:19:09.333Z,6.76
2018-05-09T20:25:04.342Z,6.91
2018-05-09T20:30:59.383Z,6.96
2018-05-09T20:36:54.417Z,6.58
2018-05-09T20:42:49.348Z,7.81
2018-05-09T20:48:44.359Z,7.71
2018-05-09T20:54:39.329Z,7.57
2018-05-09T21:00:34.384Z,7.25
2018-05-09T21:06:29.376Z,8.6
2018-05-09T21:12:24.363Z,8.16
2018-05-09T21:18:19.384Z,7.46
2018-05-09T21:24:14.369Z,7.3
2018-05-09T21:30:09.405Z,7.53
2018-05-09T21:36:04.381Z,7.07
2018-05-09T21:41:59.384Z,7.33
2018-05-09T21:47:54.408Z,6.9
2018-05-09T21:53:49.405Z,6.93
2018-05-09T21:59:44.372Z,7.6
2018-05-09T22:05:39.461Z,6.99
2018-05-09T22:11:34.486Z,6.55
2018-05-09T22:17:29.474Z,7.29
2018-05-09T22:23:24.450Z,7.34
2018-05-09T22:29:19.466Z,6.6
2018-05-09T22:35:14.456Z,6.57
2018-05-09T22:41:09.427Z,6.24
2018-05-09T22:47:04.412Z,7.17
2018-05-09T22:52:59.406Z,7
2018-05-09T22:58:54.484Z,7.18
2018-05-09T23:04:49.470Z,6.75
2018-05-09T23:10:44.473Z,6.93
2018-05-09T23:16:39.475Z,6.82
2018-05-09T23:22:34.462Z,7.03
2018-05-09T23:28:29.431Z,7.02
2018-05-09T23:34:24.442Z,7.34
2018-05-09T23:40:19.438Z,7.45
2018-05-09T23:46:14.446Z,7.1
2018-05-09T23:52:09.558Z,7.09
2018-05-09T23:58:04.451Z,7.09
